Time;durP1;ratioP1;P1;durP2;ratioP2;P2;SDS_P1;SDS_P2;PMS_P1;PMS_P2;Temp;Humidity;BMP_temperature;BMP_pressure;BME280_temperature;BME280_humidity;BME280_pressure;Samples;Min_cycle;Max_cycle;Signal;HPM_P1;HPM_P2
2023/10/27 00:00:26;;;;;;;6.70;6.07;;;;;;;9.88;100.00;97404.59;6078642;23;20164;-83
2023/10/27 00:02:58;;;;;;;6.50;5.90;;;;;;;9.89;100.00;97393.63;6077163;23;20183;-82
2023/10/27 00:05:30;;;;;;;6.50;5.70;;;;;;;9.92;100.00;97394.97;6077509;23;20204;-82
2023/10/27 00:07:59;;;;;;;6.00;5.50;;;;;;;9.91;100.00;97391.50;6100867;23;20650;-84
2023/10/27 00:10:28;;;;;;;5.90;5.40;;;;;;;9.92;100.00;97384.28;6076702;23;20170;-83
2023/10/27 00:12:55;;;;;;;5.97;5.47;;;;;;;9.87;100.00;97379.72;6100286;23;20175;-82
2023/10/27 00:15:33;;;;;;;5.30;4.87;;;;;;;9.87;100.00;97382.41;6080195;23;20164;-83
2023/10/27 00:18:01;;;;;;;5.60;5.20;;;;;;;9.85;100.00;97381.88;6100082;23;20168;-82
2023/10/27 00:20:31;;;;;;;5.40;4.97;;;;;;;9.82;100.00;97370.91;6100683;23;20222;-82
2023/10/27 00:23:00;;;;;;;5.47;4.93;;;;;;;9.79;100.00;97368.78;6101501;23;20191;-83
2023/10/27 00:25:35;;;;;;;5.50;4.93;;;;;;;9.76;100.00;97363.94;6125773;23;20163;-83
2023/10/27 00:28:06;;;;;;;5.80;5.30;;;;;;;9.73;100.00;97349.25;6125766;23;20168;-82
2023/10/27 00:30:38;;;;;;;5.80;5.30;;;;;;;9.70;100.00;97341.78;6101453;23;20605;-82
2023/10/27 00:33:09;;;;;;;5.60;5.10;;;;;;;9.65;100.00;97352.47;6126944;23;20231;-85
2023/10/27 00:35:37;;;;;;;5.83;4.67;;;;;;;9.61;100.00;97343.41;6125402;23;20187;-83
2023/10/27 00:38:10;;;;;;;5.47;4.97;;;;;;;9.54;100.00;97332.16;6125409;23;20171;-84
2023/10/27 00:40:53;;;;;;;5.87;5.27;;;;;;;9.49;100.00;97324.13;6080823;23;20188;-82
2023/10/27 00:43:21;;;;;;;5.53;5.13;;;;;;;9.47;100.00;97321.72;6101441;23;20661;-82
2023/10/27 00:45:54;;;;;;;5.77;5.20;;;;;;;9.43;100.00;97327.88;6078216;23;20256;-82
2023/10/27 00:48:25;;;;;;;5.37;4.83;;;;;;;9.42;100.00;97316.41;6102608;23;20249;-83
2023/10/27 00:50:58;;;;;;;6.17;5.00;;;;;;;9.43;100.00;97315.31;6102245;23;20223;-84
2023/10/27 00:53:26;;;;;;;5.80;5.30;;;;;;;9.40;100.00;97310.53;6126212;23;20254;-82
2023/10/27 00:55:58;;;;;;;6.67;5.70;;;;;;;9.44;100.00;97308.91;6079546;23;20250;-82
2023/10/27 00:58:26;;;;;;;5.47;5.03;;;;;;;9.47;100.00;97302.25;6101685;23;20176;-83
2023/10/27 01:00:58;;;;;;;5.80;5.30;;;;;;;9.49;100.00;97294.75;6101983;23;20174;-83
2023/10/27 01:03:29;;;;;;;5.83;5.33;;;;;;;9.46;100.00;97296.09;6102387;23;20163;-83
2023/10/27 01:05:58;;;;;;;5.73;5.23;;;;;;;9.49;100.00;97297.41;6077988;23;20226;-82
2023/10/27 01:08:47;;;;;;;6.00;5.23;;;;;;;9.49;100.00;97289.38;6101904;23;20164;-82
2023/10/27 01:11:15;;;;;;;5.47;4.97;;;;;;;9.52;100.00;97280.81;6105689;23;20193;-86
2023/10/27 01:13:46;;;;;;;5.70;5.20;;;;;;;9.54;100.00;97282.19;6079196;23;20171;-84
2023/10/27 01:16:19;;;;;;;5.50;5.00;;;;;;;9.57;100.00;97283.50;6077546;23;20191;-82
2023/10/27 01:18:48;;;;;;;5.20;4.70;;;;;;;9.59;100.00;97276.03;6077669;23;20669;-82
2023/10/27 01:21:18;;;;;;;6.20;5.10;;;;;;;9.60;100.00;97267.75;6100717;23;20184;-84
2023/10/27 01:23:54;;;;;;;5.40;4.90;;;;;;;9.62;100.00;97265.59;6079144;23;20194;-83
2023/10/27 01:26:23;;;;;;;5.60;5.00;;;;;;;9.66;100.00;97260.47;6101227;23;20163;-83
2023/10/27 01:29:02;;;;;;;;;;;;;;;;;;;;;
2023/10/27 01:31:38;;;;;;;5.07;4.57;;;;;;;9.76;100.00;97262.34;6105365;23;20603;-83
2023/10/27 01:34:08;;;;;;;5.17;4.70;;;;;;;9.78;100.00;97265.56;6101698;23;20176;-83
2023/10/27 01:36:39;;;;;;;4.80;4.40;;;;;;;9.84;100.00;97261.81;6126904;23;20171;-83
2023/10/27 01:39:13;;;;;;;5.17;4.67;;;;;;;9.85;100.00;97248.13;6127010;23;20143;-83
2023/10/27 01:41:42;;;;;;;5.40;4.80;;;;;;;9.87;100.00;97251.34;6101412;23;20183;-83
2023/10/27 01:44:09;;;;;;;5.33;4.40;;;;;;;9.90;100.00;97241.97;6125929;23;20172;-83
2023/10/27 01:46:44;;;;;;;5.03;4.63;;;;;;;9.92;100.00;97246.00;6101392;23;20180;-83
2023/10/27 01:49:12;;;;;;;4.90;4.50;;;;;;;9.93;100.00;97246.78;6078555;23;20175;-83
2023/10/27 01:51:43;;;;;;;4.77;4.37;;;;;;;9.95;100.00;97247.31;6078414;23;20176;-83
2023/10/27 01:54:13;;;;;;;4.63;4.13;;;;;;;9.97;100.00;97247.84;6126967;23;20606;-83
2023/10/27 01:56:46;;;;;;;4.77;4.17;;;;;;;9.99;100.00;97238.47;6077409;23;20199;-82
2023/10/27 01:59:16;;;;;;;4.60;4.20;;;;;;;10.00;100.00;97218.66;6078248;23;20167;-82
2023/10/27 02:01:44;;;;;;;5.47;4.27;;;;;;;9.98;100.00;97204.78;6124991;23;20172;-83
2023/10/27 02:04:15;;;;;;;4.80;4.40;;;;;;;10.00;100.00;97201.81;6125174;23;20189;-84
2023/10/27 02:06:46;;;;;;;5.00;4.53;;;;;;;10.00;100.00;97193.78;6125110;23;20203;-85
2023/10/27 02:09:14;;;;;;;4.87;4.47;;;;;;;9.97;100.00;97187.13;6101902;23;20168;-83
2023/10/27 02:11:43;;;;;;;4.73;4.33;;;;;;;9.97;100.00;97189.00;6125046;23;20180;-83
2023/10/27 02:14:17;;;;;;;4.70;4.30;;;;;;;9.97;100.00;97189.00;6125109;23;20168;-83
2023/10/27 02:16:46;;;;;;;4.63;4.23;;;;;;;10.00;100.00;97183.09;6100779;23;20264;-82
2023/10/27 02:19:26;;;;;;;4.70;4.13;;;;;;;10.02;100.00;97188.97;6102396;23;20162;-82
2023/10/27 02:21:58;;;;;;;4.50;4.20;;;;;;;10.04;100.00;97186.81;6101959;23;20646;-82
2023/10/27 02:24:32;;;;;;;4.37;4.07;;;;;;;10.05;100.00;97189.22;6101148;23;20226;-83
2023/10/27 02:27:02;;;;;;;4.63;4.23;;;;;;;10.04;100.00;97174.25;6101666;23;20616;-83
2023/10/27 02:29:37;;;;;;;4.80;4.40;;;;;;;10.05;100.00;97173.19;6125065;23;20180;-83
2023/10/27 02:32:12;;;;;;;4.37;4.07;;;;;;;10.06;100.00;97174.78;6101667;23;20203;-83
2023/10/27 02:34:40;;;;;;;5.03;4.33;;;;;;;10.07;100.00;97170.22;6077865;23;20180;-84
2023/10/27 02:37:10;;;;;;;5.57;4.67;;;;;;;10.06;100.00;97155.25;6100568;23;20195;-83
2023/10/27 02:39:42;;;;;;;5.07;4.67;;;;;;;10.07;100.00;97159.53;6101729;23;20171;-84
2023/10/27 02:42:10;;;;;;;4.93;4.50;;;;;;;10.08;100.00;97137.03;6100609;23;20242;-83
2023/10/27 02:44:47;;;;;;;5.47;4.93;;;;;;;10.06;100.00;97129.31;6081395;23;20167;-83
2023/10/27 02:47:19;;;;;;;5.53;5.03;;;;;;;10.08;100.00;97119.09;6101217;23;20615;-83
2023/10/27 02:49:53;;;;;;;5.90;5.30;;;;;;;10.08;100.00;97115.63;6102358;23;20196;-83
2023/10/27 02:52:22;;;;;;;5.73;4.90;;;;;;;10.07;100.00;97106.84;6101038;23;20171;-84
2023/10/27 02:54:55;;;;;;;5.37;4.87;;;;;;;10.10;100.00;97102.78;6125206;23;20164;-85
2023/10/27 02:57:27;;;;;;;5.90;5.40;;;;;;;10.08;100.00;97099.56;6125129;23;20263;-83
2023/10/27 02:59:57;;;;;;;6.30;5.23;;;;;;;10.10;100.00;97097.44;6125409;23;20187;-85
2023/10/27 03:02:28;;;;;;;5.73;5.10;;;;;;;10.09;100.00;97091.28;6101759;23;20164;-83
2023/10/27 03:04:59;;;;;;;5.80;5.30;;;;;;;10.07;100.00;97088.09;6125640;23;20168;-83
2023/10/27 03:07:31;;;;;;;5.80;5.30;;;;;;;10.06;100.00;97083.03;6101979;23;20179;-85
2023/10/27 03:10:02;;;;;;;5.93;5.37;;;;;;;10.04;100.00;97069.09;6077764;23;20599;-85
2023/10/27 03:12:34;;;;;;;6.30;5.70;;;;;;;10.01;100.00;97069.69;6101600;23;20170;-84
2023/10/27 03:15:06;;;;;;;6.33;5.57;;;;;;;9.99;100.00;97066.47;6101062;23;20206;-84
2023/10/27 03:17:36;;;;;;;6.27;5.67;;;;;;;9.98;100.00;97059.53;6077242;23;20184;-85
2023/10/27 03:20:11;;;;;;;6.80;6.20;;;;;;;9.96;100.00;97049.13;6101426;23;20178;-86
2023/10/27 03:22:41;;;;;;;6.80;6.10;;;;;;;9.92;100.00;97053.44;6101340;23;20191;-85
2023/10/27 03:25:10;;;;;;;6.80;6.20;;;;;;;9.94;100.00;97040.56;6077974;23;20259;-84
2023/10/27 03:27:39;;;;;;;7.07;6.37;;;;;;;9.90;100.00;97028.00;6101629;23;20178;-84
2023/10/27 03:30:08;;;;;;;6.70;6.00;;;;;;;9.89;100.00;97021.88;6077694;23;20182;-83
2023/10/27 03:32:37;;;;;;;6.83;6.23;;;;;;;9.88;100.00;97012.28;6125785;23;20222;-83
2023/10/27 03:35:09;;;;;;;6.70;6.10;;;;;;;9.90;100.00;97006.63;6101506;23;20203;-84
2023/10/27 03:37:40;;;;;;;6.53;5.90;;;;;;;9.89;100.00;96997.78;6100828;23;20199;-83
2023/10/27 03:40:10;;;;;;;5.93;5.43;;;;;;;9.91;100.00;97009.03;6101163;23;20175;-84
2023/10/27 03:42:38;;;;;;;6.47;5.87;;;;;;;9.94;100.00;97005.78;6126138;23;20188;-85
2023/10/27 03:45:06;;;;;;;7.07;5.80;;;;;;;9.96;100.00;97003.63;6100950;23;20168;-84
2023/10/27 03:47:37;;;;;;;6.57;5.97;;;;;;;9.94;100.00;96992.41;6100946;23;20199;-85
2023/10/27 03:50:10;;;;;;;6.70;6.10;;;;;;;9.97;100.00;96993.75;6101973;23;20232;-83
2023/10/27 03:52:41;;;;;;;6.60;5.97;;;;;;;9.95;100.00;96986.00;6124848;23;20172;-84
2023/10/27 03:55:11;;;;;;;5.80;5.30;;;;;;;9.96;100.00;96990.28;6125034;23;20172;-84
2023/10/27 03:57:42;;;;;;;7.67;7.03;;;;;;;9.99;100.00;96983.53;6126874;23;20199;-84
2023/10/27 04:00:15;;;;;;;8.53;7.43;;;;;;;10.00;100.00;96969.09;6103302;23;20176;-83
2023/10/27 04:02:47;;;;;;;8.43;7.63;;;;;;;10.02;100.00;96977.66;6128253;23;20163;-86
2023/10/27 04:05:15;;;;;;;8.67;7.00;;;;;;;10.01;100.00;96974.19;6127911;23;20171;-85
2023/10/27 04:07:43;;;;;;;8.07;7.30;;;;;;;10.00;100.00;96967.22;6126693;23;20167;-84
2023/10/27 04:10:23;;;;;;;7.37;6.67;;;;;;;10.03;100.00;96966.66;6126649;23;20155;-83
2023/10/27 04:12:54;;;;;;;7.67;6.97;;;;;;;10.02;100.00;96958.94;6103253;23;20168;-84
2023/10/27 04:15:22;;;;;;;7.57;6.97;;;;;;;10.04;100.00;96962.09;6102318;23;20171;-84
2023/10/27 04:17:52;;;;;;;6.97;6.30;;;;;;;10.05;100.00;96955.69;6102958;23;20192;-85
2023/10/27 04:20:26;;;;;;;7.23;6.63;;;;;;;10.06;100.00;96949.28;6127838;23;20263;-84
2023/10/27 04:23:01;;;;;;;7.30;6.70;;;;;;;10.05;100.00;96945.00;6081936;23;20191;-84
2023/10/27 04:25:30;;;;;;;6.93;6.37;;;;;;;10.07;100.00;96940.16;6102637;23;20246;-84
2023/10/27 04:28:00;;;;;;;8.00;7.30;;;;;;;10.06;100.00;96933.22;6126755;23;20168;-85
2023/10/27 04:30:32;;;;;;;7.80;7.03;;;;;;;10.08;100.00;96941.75;6127826;23;20163;-84
2023/10/27 04:32:59;;;;;;;6.70;6.20;;;;;;;10.07;100.00;96940.97;6078426;23;20167;-84
2023/10/27 04:35:27;;;;;;;7.20;6.57;;;;;;;10.07;100.00;96929.47;6102659;23;20168;-84
2023/10/27 04:37:58;;;;;;;6.90;6.30;;;;;;;10.10;100.00;96928.91;6102299;23;20218;-83
2023/10/27 04:40:28;;;;;;;7.60;6.90;;;;;;;10.11;100.00;96915.25;6102923;23;20168;-85
2023/10/27 04:43:15;;;;;;;7.83;7.13;;;;;;;10.11;100.00;96909.09;6087712;23;20167;-84
2023/10/27 04:45:45;;;;;;;7.70;7.00;;;;;;;10.12;100.00;96908.78;6128165;23;20163;-85
2023/10/27 04:48:18;;;;;;;7.50;7.00;;;;;;;10.14;100.00;96901.28;6126828;23;20258;-85
2023/10/27 04:50:58;;;;;;;7.53;6.87;;;;;;;10.12;100.00;96891.97;6103949;23;20176;-85
2023/10/27 04:53:27;;;;;;;7.73;7.03;;;;;;;10.08;100.00;96890.91;6079365;23;20155;-84
2023/10/27 04:56:02;;;;;;;7.50;6.80;;;;;;;10.05;100.00;96881.59;6082349;23;20168;-84
2023/10/27 04:58:29;;;;;;;7.70;7.00;;;;;;;10.10;100.00;96880.75;6102570;23;20188;-83
2023/10/27 05:01:02;;;;;;;8.40;7.57;;;;;;;10.11;100.00;96850.25;6127587;23;20188;-84
2023/10/27 05:03:32;;;;;;;8.40;7.50;;;;;;;10.11;100.00;96847.56;6126350;23;20200;-85
2023/10/27 05:06:09;;;;;;;8.80;7.90;;;;;;;10.14;100.00;96850.47;6102231;23;20206;-84
2023/10/27 05:08:42;;;;;;;8.10;7.30;;;;;;;10.16;100.00;96855.56;6125604;23;20156;-84
2023/10/27 05:11:11;;;;;;;8.20;7.40;;;;;;;10.18;100.00;96844.56;6102424;23;20183;-84
2023/10/27 05:13:40;;;;;;;7.63;7.03;;;;;;;10.18;100.00;96847.25;6101543;23;20170;-84
2023/10/27 05:16:10;;;;;;;8.07;7.33;;;;;;;10.17;100.00;96841.13;6126381;23;20186;-84
2023/10/27 05:18:44;;;;;;;7.87;7.07;;;;;;;10.20;100.00;96832.53;6101498;23;20183;-84
2023/10/27 05:21:15;;;;;;;7.70;7.00;;;;;;;10.20;100.00;96829.03;6127369;23;20183;-84
2023/10/27 05:23:45;;;;;;;7.80;7.20;;;;;;;10.21;100.00;96830.66;6102570;23;20179;-84
2023/10/27 05:26:12;;;;;;;7.97;7.27;;;;;;;10.19;100.00;96822.88;6125730;23;20175;-84
2023/10/27 05:28:40;;;;;;;7.67;7.07;;;;;;;10.15;100.00;96811.97;6101503;23;20191;-84
2023/10/27 05:31:08;;;;;;;8.73;8.03;;;;;;;10.19;100.00;96808.72;6126524;23;20171;-84
2023/10/27 05:33:39;;;;;;;8.73;7.93;;;;;;;10.19;100.00;96798.81;6125685;23;20176;-83
2023/10/27 05:36:11;;;;;;;8.63;7.83;;;;;;;10.22;100.00;96792.09;6102210;23;20382;-84
2023/10/27 05:38:39;;;;;;;8.40;7.70;;;;;;;10.25;100.00;96786.19;6078421;23;20192;-84
2023/10/27 05:41:14;;;;;;;8.50;7.80;;;;;;;10.25;100.00;96788.84;6101890;23;20178;-85
2023/10/27 05:43:47;;;;;;;9.43;8.63;;;;;;;10.29;100.00;96784.50;6101856;23;20156;-83
2023/10/27 05:46:14;;;;;;;8.90;8.20;;;;;;;10.33;100.00;96783.66;6125705;23;20199;-83
2023/10/27 05:48:46;;;;;;;9.37;8.57;;;;;;;10.31;100.00;96775.09;6102281;23;20172;-86
2023/10/27 05:51:17;;;;;;;9.10;8.30;;;;;;;10.35;100.00;96770.81;6125729;23;20173;-86
2023/10/27 05:53:45;;;;;;;9.73;8.83;;;;;;;10.36;100.00;96767.00;6101725;23;20168;-84
2023/10/27 05:56:15;;;;;;;10.20;9.20;;;;;;;10.36;100.00;96767.00;6101929;23;20173;-84
2023/10/27 05:58:46;;;;;;;9.70;8.80;;;;;;;10.35;100.00;96776.16;6125491;23;20184;-84
2023/10/27 06:01:23;;;;;;;10.57;9.57;;;;;;;10.42;100.00;96765.88;6126043;23;20238;-84
2023/10/27 06:03:57;;;;;;;10.57;9.57;;;;;;;10.42;100.00;96763.19;6102074;23;20179;-84
2023/10/27 06:06:27;;;;;;;10.60;9.70;;;;;;;10.40;100.00;96762.72;6077779;23;20258;-86
2023/10/27 06:08:55;;;;;;;11.17;10.20;;;;;;;10.45;100.00;96764.53;6126585;23;20248;-83
2023/10/27 06:11:23;;;;;;;11.30;10.27;;;;;;;10.46;100.00;96758.06;6126522;23;20501;-84
2023/10/27 06:13:55;;;;;;;11.10;10.17;;;;;;;10.48;100.00;96767.41;6125138;23;20171;-84
2023/10/27 06:16:24;;;;;;;11.87;10.77;;;;;;;10.51;100.00;96774.84;6125431;23;20171;-84
2023/10/27 06:18:59;;;;;;;12.27;11.07;;;;;;;10.52;100.00;96773.78;6125300;23;20525;-83
2023/10/27 06:21:36;;;;;;;12.10;10.90;;;;;;;10.53;100.00;96769.22;6125645;23;20183;-85
2023/10/27 06:24:07;;;;;;;12.47;11.37;;;;;;;10.56;100.00;96777.47;6100918;23;20198;-83
2023/10/27 06:26:35;;;;;;;12.57;11.50;;;;;;;10.60;100.00;96783.03;6101892;23;20168;-84
2023/10/27 06:29:03;;;;;;;12.17;10.97;;;;;;;10.64;100.00;96778.69;6101699;23;20171;-85
2023/10/27 06:31:38;;;;;;;12.30;11.30;;;;;;;10.69;100.00;96783.19;6101214;23;20699;-84
2023/10/27 06:34:05;;;;;;;12.07;11.07;;;;;;;10.67;100.00;96786.16;6078902;23;20171;-83
2023/10/27 06:36:40;;;;;;;11.67;10.67;;;;;;;10.76;100.00;96781.75;6101884;23;20175;-83
2023/10/27 06:39:09;;;;;;;12.33;11.13;;;;;;;10.79;100.00;96785.72;6077886;23;20192;-84
2023/10/27 06:41:40;;;;;;;11.33;10.23;;;;;;;10.81;100.00;96783.56;6101977;23;20235;-84
2023/10/27 06:44:11;;;;;;;11.43;10.47;;;;;;;10.84;100.00;96778.41;6077553;23;20173;-84
2023/10/27 06:46:41;;;;;;;13.23;12.13;;;;;;;10.88;100.00;96779.44;6101250;23;20169;-85
2023/10/27 06:49:18;;;;;;;11.43;10.53;;;;;;;10.91;100.00;96784.22;6079572;23;20169;-84
2023/10/27 06:51:49;;;;;;;11.67;10.67;;;;;;;10.92;100.00;96776.97;6101577;23;20164;-84
2023/10/27 06:54:17;;;;;;;10.67;9.80;;;;;;;10.93;100.00;96779.34;6125534;23;20164;-84
2023/10/27 06:56:44;;;;;;;11.90;10.80;;;;;;;10.94;100.00;96778.28;6126055;23;20169;-84
2023/10/27 06:59:14;;;;;;;12.17;11.03;;;;;;;10.99;100.00;96788.91;6125597;23;20671;-84
2023/10/27 07:01:44;;;;;;;10.87;10.03;;;;;;;11.00;100.00;96785.16;6124590;23;20641;-84
2023/10/27 07:04:15;;;;;;;11.70;10.70;;;;;;;11.09;100.00;96787.97;6101904;23;20171;-84
2023/10/27 07:06:44;;;;;;;11.83;10.73;;;;;;;11.06;100.00;96788.53;6075959;23;20208;-84
2023/10/27 07:09:12;;;;;;;12.63;11.33;;;;;;;11.07;100.00;96792.81;6100650;23;20629;-83
2023/10/27 07:11:46;;;;;;;11.70;10.60;;;;;;;11.08;100.00;96793.63;6101220;23;20176;-84
2023/10/27 07:14:15;;;;;;;11.70;10.60;;;;;;;11.10;100.00;96794.13;6124934;23;20180;-85
2023/10/27 07:16:44;;;;;;;10.97;10.07;;;;;;;11.15;100.00;96791.38;6125362;23;20181;-84
2023/10/27 07:19:14;;;;;;;9.77;8.77;;;;;;;11.15;100.00;96784.09;6101207;23;20192;-84
2023/10/27 07:21:45;;;;;;;10.47;9.30;;;;;;;11.22;100.00;96800.63;6101481;23;20195;-85
2023/10/27 07:24:13;;;;;;;8.80;8.00;;;;;;;11.27;100.00;96805.91;6125384;23;20188;-84
2023/10/27 07:26:41;;;;;;;7.33;6.73;;;;;;;11.26;100.00;96798.16;6077380;23;20487;-87
2023/10/27 07:29:11;;;;;;;7.57;6.87;;;;;;;11.32;100.00;96805.84;6077095;23;20259;-84
2023/10/27 07:31:38;;;;;;;7.10;6.50;;;;;;;11.34;100.00;96800.16;6077872;23;20183;-86
2023/10/27 07:34:06;;;;;;;7.20;6.60;;;;;;;11.35;100.00;96799.06;6102766;23;20173;-85
2023/10/27 07:36:41;;;;;;;6.27;5.73;;;;;;;11.42;100.00;96803.00;6080302;23;20177;-84
2023/10/27 07:39:10;;;;;;;5.20;4.67;;;;;;;11.44;100.00;96798.13;6126867;23;20220;-84
2023/10/27 07:41:38;;;;;;;4.90;4.50;;;;;;;11.54;100.00;96801.72;6103228;23;20178;-85
2023/10/27 07:44:06;;;;;;;4.70;4.30;;;;;;;11.54;100.00;96804.41;6103224;23;20163;-85
2023/10/27 07:46:37;;;;;;;4.47;4.07;;;;;;;11.56;100.00;96807.59;6103439;23;20181;-85
2023/10/27 07:49:08;;;;;;;4.53;4.13;;;;;;;11.56;100.00;96813.75;6103720;23;20176;-86
2023/10/27 07:51:36;;;;;;;4.77;3.33;;;;;;;11.56;100.00;96821.00;6103351;23;20168;-85
2023/10/27 07:54:06;;;;;;;3.33;2.87;;;;;;;11.58;100.00;96822.28;6101736;23;20248;-85
2023/10/27 07:56:33;;;;;;;5.67;2.67;;;;;;;11.63;100.00;96832.13;6101938;23;20164;-84
2023/10/27 07:59:02;;;;;;;2.87;2.30;;;;;;;11.60;100.00;96833.53;6101667;23;20189;-83
2023/10/27 08:01:31;;;;;;;2.40;2.20;;;;;;;11.62;100.00;96841.28;6126079;23;20168;-84
2023/10/27 08:03:59;;;;;;;2.30;2.10;;;;;;;11.63;100.00;96849.03;6101789;23;20165;-84
2023/10/27 08:06:27;;;;;;;2.43;2.23;;;;;;;11.67;100.00;96852.72;6101884;23;20232;-84
2023/10/27 08:08:54;;;;;;;2.23;2.03;;;;;;;11.74;100.00;96855.84;6077463;23;20625;-85
2023/10/27 08:11:22;;;;;;;2.20;1.63;;;;;;;11.75;100.00;96876.22;6126464;23;20168;-84
2023/10/27 08:14:04;;;;;;;2.00;1.40;;;;;;;11.71;100.00;96874.41;6127956;23;20209;-84
2023/10/27 08:16:37;;;;;;;1.97;1.00;;;;;;;11.71;100.00;96877.84;6102010;23;20260;-83
2023/10/27 08:19:07;;;;;;;1.20;0.77;;;;;;;11.71;100.00;96883.22;6103200;23;20229;-84
2023/10/27 08:21:49;;;;;;;1.97;0.80;;;;;;;11.70;100.00;96896.94;6104332;23;20735;-84
2023/10/27 08:24:19;;;;;;;1.00;0.60;;;;;;;11.70;100.00;96905.78;6127276;23;20173;-84
2023/10/27 08:26:47;;;;;;;0.90;0.60;;;;;;;11.78;100.00;96915.88;6126299;23;20675;-85
2023/10/27 08:29:19;;;;;;;0.57;0.30;;;;;;;11.66;100.00;96918.19;6104074;23;20165;-85
2023/10/27 08:31:47;;;;;;;1.57;0.47;;;;;;;11.64;100.00;96928.41;6102613;23;20165;-86
2023/10/27 08:34:23;;;;;;;1.20;0.50;;;;;;;11.48;100.00;96922.44;6081008;23;20178;-85
2023/10/27 08:36:54;;;;;;;0.53;0.40;;;;;;;11.37;100.00;96912.19;6126024;23;20175;-86
2023/10/27 08:39:27;;;;;;;0.93;0.47;;;;;;;11.33;100.00;96906.59;6127013;23;20184;-85
2023/10/27 08:42:04;;;;;;;0.70;0.30;;;;;;;11.30;100.00;96901.81;6104362;23;20163;-86
2023/10/27 08:44:32;;;;;;;0.10;0.10;;;;;;;11.30;100.00;96911.72;6127192;23;20168;-87
2023/10/27 08:47:04;;;;;;;0.20;0.20;;;;;;;11.21;100.00;96910.78;6127923;23;20168;-87
2023/10/27 08:49:31;;;;;;;0.47;0.30;;;;;;;11.26;100.00;96908.84;6127389;23;20215;-85
2023/10/27 08:52:02;;;;;;;0.23;0.20;;;;;;;11.22;100.00;96889.06;6102593;23;20168;-85
2023/10/27 08:54:31;;;;;;;0.30;0.27;;;;;;;11.30;100.00;96887.59;6078385;23;20178;-85
2023/10/27 08:57:01;;;;;;;0.10;0.10;;;;;;;11.40;100.00;96884.78;6078661;23;20168;-86
2023/10/27 08:59:30;;;;;;;0.20;0.20;;;;;;;11.38;100.00;96887.75;6078655;23;20196;-84
2023/10/27 09:02:30;;;;;;;0.37;0.20;;;;;;;11.51;100.00;96898.84;6078444;23;20176;-85
2023/10/27 09:05:05;;;;;;;0.60;0.20;;;;;;;11.61;100.00;96902.16;6079108;23;20607;-85
2023/10/27 09:07:33;;;;;;;0.50;0.30;;;;;;;11.78;100.00;96897.09;6078043;23;20203;-86
2023/10/27 09:10:09;;;;;;;0.80;0.30;;;;;;;11.83;100.00;96910.44;6102691;23;20164;-85
2023/10/27 09:12:41;;;;;;;0.60;0.30;;;;;;;11.91;100.00;96906.25;6126894;23;20160;-86
2023/10/27 09:15:13;;;;;;;0.70;0.43;;;;;;;12.03;100.00;96903.94;6126177;23;20159;-85
2023/10/27 09:17:53;;;;;;;0.40;0.33;;;;;;;11.97;100.00;96910.47;6102242;23;20270;-85
2023/10/27 09:20:22;;;;;;;0.40;0.40;;;;;;;12.05;100.00;96908.97;6102042;23;20180;-84
2023/10/27 09:23:05;;;;;;;0.40;0.40;;;;;;;11.98;100.00;96922.78;6077903;23;20195;-85
2023/10/27 09:26:00;;;;;;;0.20;0.20;;;;;;;11.93;100.00;96917.50;6126236;23;20287;-84
2023/10/27 09:28:28;;;;;;;0.30;0.30;;;;;;;12.08;100.00;96935.25;6078075;23;20172;-84
2023/10/27 09:30:57;;;;;;;0.50;0.50;;;;;;;12.05;100.00;96933.94;6101706;23;20171;-83
2023/10/27 09:33:27;;;;;;;0.30;0.30;;;;;;;12.08;100.00;96954.03;6076505;23;20176;-84
2023/10/27 09:35:59;;;;;;;0.40;0.40;;;;;;;12.14;100.00;96961.69;6098555;23;20167;-85
2023/10/27 09:38:27;;;;;;;0.20;0.20;;;;;;;12.19;100.00;96961.59;6098718;23;20733;-84
2023/10/27 09:40:56;;;;;;;0.30;0.30;;;;;;;12.33;100.00;96977.75;6100190;23;20522;-85
2023/10/27 09:43:25;;;;;;;1.60;0.27;;;;;;;12.39;100.00;96984.63;6125179;23;20168;-84
2023/10/27 09:46:03;;;;;;;0.30;0.30;;;;;;;12.52;100.00;96997.28;6126381;23;20159;-83
2023/10/27 09:48:35;;;;;;;0.77;0.30;;;;;;;12.41;100.00;97008.53;6101030;23;20179;-84
2023/10/27 09:51:07;;;;;;;0.30;0.30;;;;;;;12.34;100.00;97012.38;6076975;23;20172;-84
2023/10/27 09:53:35;;;;;;;0.40;0.40;;;;;;;12.30;100.00;97021.31;6125299;23;20159;-83
2023/10/27 09:56:01;;;;;;;0.23;0.23;;;;;;;12.28;100.00;97026.97;6124862;23;20161;-84
2023/10/27 09:58:33;;;;;;;0.47;0.40;;;;;;;12.23;100.00;97027.03;6100304;23;20196;-84
2023/10/27 10:01:01;;;;;;;0.33;0.30;;;;;;;12.24;100.00;97050.13;6076984;23;20169;-83
2023/10/27 10:03:32;;;;;;;0.30;0.30;;;;;;;12.16;100.00;97064.19;6076318;23;20181;-85
2023/10/27 10:06:15;;;;;;;0.20;0.20;;;;;;;12.18;100.00;97050.47;6125516;23;20223;-83
2023/10/27 10:09:07;;;;;;;0.30;0.30;;;;;;;12.23;100.00;97050.41;6077345;23;20255;-83
2023/10/27 10:11:51;;;;;;;0.37;0.30;;;;;;;12.21;100.00;97049.91;6124689;23;20209;-85
2023/10/27 10:14:44;;;;;;;0.60;0.60;;;;;;;12.35;100.00;97056.13;6123789;23;20183;-84
2023/10/27 10:17:12;;;;;;;0.83;0.30;;;;;;;12.26;100.00;97049.84;6123489;23;20216;-84
2023/10/27 10:19:50;;;;;;;0.77;0.30;;;;;;;12.29;100.00;97050.03;6078739;23;20219;-85
2023/10/27 10:22:42;;;;;;;1.13;1.03;;;;;;;12.27;100.00;97033.41;6099763;23;20279;-84
2023/10/27 10:25:29;;;;;;;1.17;0.50;;;;;;;12.32;100.00;97027.16;6124883;23;20172;-84
2023/10/27 10:28:18;;;;;;;0.30;0.30;;;;;;;12.41;100.00;97005.84;6103095;23;20171;-84
2023/10/27 10:31:13;;;;;;;0.30;0.30;;;;;;;12.47;100.00;97000.06;6101393;23;20171;-84
2023/10/27 10:33:46;;;;;;;0.30;0.23;;;;;;;12.49;100.00;97005.94;6124450;23;20247;-84
2023/10/27 10:36:15;;;;;;;0.50;0.50;;;;;;;12.71;100.00;96999.91;6101093;23;20176;-84
2023/10/27 10:38:55;;;;;;;0.27;0.27;;;;;;;12.87;100.00;96993.19;6121844;23;20312;-84
2023/10/27 10:41:43;;;;;;;0.43;0.43;;;;;;;13.00;100.00;96975.47;6122494;23;20181;-84
2023/10/27 10:44:13;;;;;;;0.60;0.43;;;;;;;13.00;100.00;96967.41;6098305;23;20173;-84
2023/10/27 10:46:45;;;;;;;0.70;0.40;;;;;;;13.10;100.00;96977.94;6098159;23;20183;-83
2023/10/27 10:49:27;;;;;;;1.60;0.60;;;;;;;13.14;100.00;96977.09;6122233;23;20154;-84
2023/10/27 10:51:58;;;;;;;0.70;0.30;;;;;;;13.16;100.00;96972.19;6099353;23;20169;-83
2023/10/27 10:54:35;;;;;;;0.53;0.37;;;;;;;13.12;100.00;96965.03;6123674;23;20177;-83
2023/10/27 10:57:06;;;;;;;0.43;0.30;;;;;;;13.16;100.00;96958.75;6122480;23;20171;-85
2023/10/27 10:59:33;;;;;;;1.93;0.40;;;;;;;13.25;100.00;96939.22;6097850;23;20179;-83
2023/10/27 11:02:00;;;;;;;0.50;0.30;;;;;;;13.31;100.00;96916.50;6123571;23;20223;-83
2023/10/27 11:04:33;;;;;;;0.30;0.20;;;;;;;13.40;100.00;96912.78;6123241;23;20180;-85
2023/10/27 11:07:09;;;;;;;0.20;0.20;;;;;;;13.43;100.00;96922.16;6099155;23;20284;-83
2023/10/27 11:09:37;;;;;;;1.07;0.20;;;;;;;13.72;100.00;96927.94;6099701;23;20628;-84
2023/10/27 11:12:07;;;;;;;0.30;0.20;;;;;;;14.03;100.00;96939.56;6100181;23;20264;-83
2023/10/27 11:14:41;;;;;;;0.40;0.40;;;;;;;14.31;100.00;96947.50;6124122;23;20226;-83
2023/10/27 11:17:17;;;;;;;0.30;0.30;;;;;;;14.61;100.00;96957.50;6124460;23;20197;-83
2023/10/27 11:19:54;;;;;;;0.30;0.30;;;;;;;14.84;100.00;96972.53;6075043;23;20193;-84
2023/10/27 11:22:24;;;;;;;0.70;0.30;;;;;;;14.82;100.00;96977.44;6077015;23;20219;-83
2023/10/27 11:24:55;;;;;;;0.20;0.20;;;;;;;14.85;100.00;96992.19;6099587;23;20166;-83
2023/10/27 11:27:29;;;;;;;0.40;0.30;;;;;;;14.77;100.00;96998.34;6100451;23;20235;-83
2023/10/27 11:30:00;;;;;;;0.20;0.20;;;;;;;14.61;100.00;96992.53;6099899;23;20661;-83
2023/10/27 11:32:31;;;;;;;0.30;0.30;;;;;;;14.52;100.00;96989.81;6076533;23;20180;-83
2023/10/27 11:35:01;;;;;;;0.20;0.20;;;;;;;14.34;100.00;96971.13;6099911;23;20168;-83
2023/10/27 11:37:33;;;;;;;0.30;0.30;;;;;;;14.19;100.00;96971.50;6076830;23;20174;-84
2023/10/27 11:40:15;;;;;;;0.30;0.30;;;;;;;13.97;100.00;97000.00;6100320;23;20211;-84
2023/10/27 11:42:44;;;;;;;0.20;0.20;;;;;;;13.89;100.00;97003.44;6100013;23;20169;-84
2023/10/27 11:45:16;;;;;;;0.20;0.20;;;;;;;13.99;100.00;97005.09;6123229;23;20221;-83
2023/10/27 11:47:50;;;;;;;0.20;0.20;;;;;;;14.50;100.00;97004.69;6100673;23;20244;-82